Time;durP1;ratioP1;P1;durP2;ratioP2;P2;SDS_P1;SDS_P2;PMS_P1;PMS_P2;Temp;Humidity;BMP_temperature;BMP_pressure;BME280_temperature;BME280_humidity;BME280_pressure;Samples;Min_cycle;Max_cycle;Signal;HPM_P1;HPM_P2
2023/06/13 00:01:40;;;;;;;7.53;3.50;;;;;;;16.07;88.74;95998.63;5116851;28;20055;-66
2023/06/13 00:04:08;;;;;;;13.20;4.22;;;;;;;16.10;89.46;95994.94;5116523;28;20491;-65
2023/06/13 00:06:37;;;;;;;6.97;4.28;;;;;;;16.11;89.20;95999.28;5116721;28;20049;-65
2023/06/13 00:09:06;;;;;;;7.53;4.05;;;;;;;16.09;88.88;96002.00;5116388;28;20444;-66
2023/06/13 00:11:33;;;;;;;9.73;4.35;;;;;;;16.06;88.83;95993.44;5116714;28;20044;-67
2023/06/13 00:14:00;;;;;;;10.55;5.10;;;;;;;16.04;87.84;95986.50;5115516;28;20083;-67
2023/06/13 00:16:27;;;;;;;10.32;4.20;;;;;;;16.00;88.35;95985.03;5116374;28;20048;-66
2023/06/13 00:18:56;;;;;;;11.73;4.15;;;;;;;16.00;88.68;95985.03;5116250;28;20079;-66
2023/06/13 00:21:23;;;;;;;7.30;3.58;;;;;;;15.98;87.14;95986.09;5116241;28;20087;-66
2023/06/13 00:23:50;;;;;;;7.97;4.32;;;;;;;15.99;87.73;95986.00;5116179;28;20469;-66
2023/06/13 00:26:18;;;;;;;6.95;4.15;;;;;;;15.94;87.30;95989.84;5116188;28;20123;-65
2023/06/13 00:28:46;;;;;;;9.95;3.78;;;;;;;15.94;87.76;95979.28;5116406;28;20459;-66
2023/06/13 00:31:13;;;;;;;8.68;3.80;;;;;;;15.92;87.98;95990.78;5116082;28;20052;-66
2023/06/13 00:33:43;;;;;;;5.35;3.92;;;;;;;15.87;87.50;95987.63;5115894;28;20127;-66
2023/06/13 00:36:14;;;;;;;19.42;5.32;;;;;;;15.86;87.81;95980.66;5115886;28;20100;-66
2023/06/13 00:38:41;;;;;;;7.70;4.35;;;;;;;15.88;87.93;95984.03;5115795;28;20040;-67
2023/06/13 00:41:08;;;;;;;10.38;3.83;;;;;;;15.88;87.94;95977.91;5115851;28;20055;-67
2023/06/13 00:43:37;;;;;;;7.60;4.20;;;;;;;15.84;87.61;95977.31;5115847;28;20122;-66
2023/06/13 00:46:04;;;;;;;7.53;4.63;;;;;;;15.84;87.16;95976.44;5115749;28;20127;-66
2023/06/13 00:48:31;;;;;;;7.40;3.97;;;;;;;15.84;86.44;95982.56;5115675;28;20050;-66
2023/06/13 00:51:01;;;;;;;11.52;4.30;;;;;;;15.84;86.29;95984.34;5115491;28;20048;-67
2023/06/13 00:53:31;;;;;;;7.03;3.70;;;;;;;15.81;86.30;95982.78;5115639;28;20047;-67
2023/06/13 00:55:59;;;;;;;9.23;4.45;;;;;;;15.76;85.71;95976.97;5115682;28;20131;-65
2023/06/13 00:58:26;;;;;;;11.30;4.30;;;;;;;15.76;85.18;95983.09;5115663;28;20050;-66
2023/06/13 01:00:55;;;;;;;12.10;4.35;;;;;;;15.69;84.69;95981.81;5115442;28;20051;-65
2023/06/13 01:03:23;;;;;;;12.90;3.88;;;;;;;15.66;84.37;95982.84;5115485;28;20116;-66
2023/06/13 01:05:50;;;;;;;10.68;3.70;;;;;;;15.63;84.54;95976.97;5115473;28;20062;-66
2023/06/13 01:08:20;;;;;;;17.15;4.40;;;;;;;15.56;84.03;95971.25;5115392;28;20043;-67
2023/06/13 01:10:59;;;;;;;14.95;4.57;;;;;;;15.46;83.94;95970.16;5115387;28;20051;-65
2023/06/13 01:13:35;;;;;;;5.00;3.90;;;;;;;15.33;84.36;95960.47;5115244;28;20093;-66
2023/06/13 01:16:13;;;;;;;14.18;3.88;;;;;;;15.21;84.55;95969.19;5115155;28;20585;-65
2023/06/13 01:18:44;;;;;;;8.38;3.97;;;;;;;15.02;84.96;95960.69;5115287;28;20058;-66
2023/06/13 01:21:14;;;;;;;9.10;4.65;;;;;;;14.91;85.08;95961.38;5115184;28;20138;-65
2023/06/13 01:23:49;;;;;;;9.02;4.07;;;;;;;14.80;86.17;95963.00;5115049;28;20096;-66
2023/06/13 01:26:33;;;;;;;9.60;4.57;;;;;;;14.53;87.08;95959.38;5114670;28;20060;-66
2023/06/13 01:29:03;;;;;;;10.07;4.50;;;;;;;14.39;87.87;95962.91;5114983;28;20127;-67
2023/06/13 01:31:33;;;;;;;9.07;4.88;;;;;;;14.19;88.85;95958.88;5114878;28;20130;-65
2023/06/13 01:34:01;;;;;;;10.98;4.95;;;;;;;14.09;89.74;95963.88;5114878;28;20044;-66
2023/06/13 01:36:28;;;;;;;9.30;5.13;;;;;;;13.93;91.39;95959.53;5114920;28;20478;-67
2023/06/13 01:38:55;;;;;;;8.60;5.70;;;;;;;13.86;92.10;95953.81;5114756;28;20046;-66
2023/06/13 01:41:22;;;;;;;19.73;5.95;;;;;;;13.79;92.64;95960.38;5114866;28;20481;-67
2023/06/13 01:43:49;;;;;;;11.85;5.28;;;;;;;13.85;92.39;95959.16;5114599;28;20047;-64
2023/06/13 01:46:26;;;;;;;12.40;5.35;;;;;;;13.84;92.26;95963.56;5114517;28;20047;-66
2023/06/13 01:49:03;;;;;;;9.88;5.30;;;;;;;13.91;91.98;95964.06;5114592;28;20083;-66
2023/06/13 01:51:38;;;;;;;6.78;4.32;;;;;;;13.96;91.35;95961.97;5114392;28;20047;-66
2023/06/13 01:54:11;;;;;;;10.43;4.65;;;;;;;14.05;90.84;95965.00;5114804;28;20052;-67
2023/06/13 01:56:41;;;;;;;21.15;5.10;;;;;;;14.07;90.14;95958.69;5114446;28;20096;-67
2023/06/13 01:59:10;;;;;;;11.93;4.68;;;;;;;14.07;89.18;95961.34;5114599;28;20043;-66
2023/06/13 02:01:39;;;;;;;11.35;5.05;;;;;;;14.01;89.04;95952.03;5114363;28;20044;-66
2023/06/13 02:04:07;;;;;;;15.75;4.68;;;;;;;14.03;88.70;95951.94;5114340;28;20044;-66
2023/06/13 02:06:35;;;;;;;10.40;4.90;;;;;;;14.05;88.33;95952.69;5114353;28;20040;-65
2023/06/13 02:09:03;;;;;;;11.85;3.95;;;;;;;14.03;87.50;95950.16;5114264;28;20416;-66
2023/06/13 02:11:31;;;;;;;9.77;4.43;;;;;;;14.01;87.46;95954.66;5114051;28;20090;-65
2023/06/13 02:13:58;;;;;;;14.57;4.78;;;;;;;13.98;87.09;95952.22;5114251;28;20509;-65
2023/06/13 02:16:25;;;;;;;9.18;4.78;;;;;;;13.97;87.02;95949.69;5114456;28;20044;-66
2023/06/13 02:18:53;;;;;;;11.25;4.22;;;;;;;13.94;86.79;95942.81;5114046;28;20043;-66
2023/06/13 02:21:20;;;;;;;10.57;4.63;;;;;;;13.89;86.77;95951.00;5114069;28;20048;-67
2023/06/13 02:23:47;;;;;;;12.25;4.70;;;;;;;13.89;86.97;95955.41;5113900;28;20089;-66
2023/06/13 02:26:16;;;;;;;9.38;4.38;;;;;;;13.85;86.86;95961.78;5113892;28;20043;-66
2023/06/13 02:28:43;;;;;;;12.05;4.82;;;;;;;13.77;86.25;95963.09;5113883;28;20043;-66
2023/06/13 02:31:11;;;;;;;18.25;4.45;;;;;;;13.77;86.20;95965.75;5113660;28;20493;-65
2023/06/13 02:33:38;;;;;;;7.55;5.07;;;;;;;13.76;86.21;95966.66;5113706;28;20055;-65
2023/06/13 02:36:07;;;;;;;23.15;5.20;;;;;;;13.76;86.61;95971.91;5113904;28;20066;-66
2023/06/13 02:38:34;;;;;;;13.32;5.60;;;;;;;13.74;86.23;95968.53;5113359;28;20060;-65
2023/06/13 02:41:02;;;;;;;10.73;4.75;;;;;;;13.73;85.91;95976.53;5113750;28;20054;-65
2023/06/13 02:43:29;;;;;;;18.05;4.95;;;;;;;13.72;85.36;95970.41;5113686;28;20039;-66
2023/06/13 02:45:58;;;;;;;12.73;4.90;;;;;;;13.66;85.47;95977.84;5113712;28;20576;-67
2023/06/13 02:48:25;;;;;;;13.55;5.28;;;;;;;13.61;85.59;95975.47;5113734;28;20108;-66
2023/06/13 02:50:53;;;;;;;9.70;5.00;;;;;;;13.57;85.27;95980.06;5113524;28;20056;-65
2023/06/13 02:53:22;;;;;;;8.90;5.20;;;;;;;13.58;84.97;95979.09;5113690;28;20054;-65
2023/06/13 02:55:52;;;;;;;7.43;5.10;;;;;;;13.54;85.11;95977.59;5113934;28;20047;-67
2023/06/13 02:58:19;;;;;;;;;;;;;;;13.53;84.95;95978.53;5114048;28;20413;-66
2023/06/13 03:00:46;;;;;;;5.32;4.82;;;;;;;13.45;85.39;95986.84;5113475;28;19920;-67
2023/06/13 03:03:16;;;;;;;11.48;4.88;;;;;;;13.46;85.60;95991.16;5113456;28;20047;-66
2023/06/13 03:05:44;;;;;;;8.73;5.32;;;;;;;13.47;85.83;95986.75;5113527;28;20044;-65
2023/06/13 03:08:11;;;;;;;18.35;6.63;;;;;;;13.46;86.38;95992.94;5113433;28;20079;-65
2023/06/13 03:10:40;;;;;;;11.60;5.85;;;;;;;13.49;86.57;95996.25;5113272;28;20504;-67
2023/06/13 03:13:07;;;;;;;10.55;4.82;;;;;;;13.51;86.05;95994.41;5113455;28;20451;-66
2023/06/13 03:15:35;;;;;;;12.80;5.38;;;;;;;13.50;85.42;95997.97;5113355;28;20051;-66
2023/06/13 03:18:03;;;;;;;15.25;6.68;;;;;;;13.56;85.48;95999.38;5113526;28;20047;-65
2023/06/13 03:20:31;;;;;;;9.35;5.05;;;;;;;13.58;85.46;95999.31;5113436;28;20047;-65
2023/06/13 03:22:58;;;;;;;7.90;5.45;;;;;;;13.61;85.01;95999.13;5113318;28;20473;-65
2023/06/13 03:25:25;;;;;;;11.35;5.45;;;;;;;13.60;84.64;95995.63;5113317;28;20047;-67
2023/06/13 03:27:54;;;;;;;6.68;4.65;;;;;;;13.60;84.85;96008.78;5113277;28;20127;-65
2023/06/13 03:30:21;;;;;;;10.52;5.35;;;;;;;13.72;85.12;96001.09;5113140;28;20473;-66
2023/06/13 03:32:48;;;;;;;11.05;5.35;;;;;;;13.90;85.45;95999.16;5113019;28;20079;-66
2023/06/13 03:35:15;;;;;;;5.75;3.90;;;;;;;14.18;84.48;96001.91;5113167;28;20093;-65
2023/06/13 03:37:42;;;;;;;8.88;4.32;;;;;;;14.36;82.32;96007.81;5113072;28;20043;-67
2023/06/13 03:40:10;;;;;;;7.15;5.00;;;;;;;14.52;82.08;96005.06;5113002;28;20051;-65
2023/06/13 03:42:37;;;;;;;8.00;4.68;;;;;;;14.79;81.80;95999.03;5113257;28;20126;-67
2023/06/13 03:45:06;;;;;;;5.72;4.95;;;;;;;15.03;80.44;96001.06;5113209;28;20113;-65
2023/06/13 03:47:33;;;;;;;13.85;4.63;;;;;;;15.31;79.17;96004.50;5113124;28;20048;-67
2023/06/13 03:50:00;;;;;;;6.50;4.93;;;;;;;15.69;79.05;96007.34;5116323;28;20051;-66
2023/06/13 03:52:27;;;;;;;7.88;4.82;;;;;;;16.10;78.28;96006.34;5116730;28;20102;-67
2023/06/13 03:54:55;;;;;;;9.27;4.78;;;;;;;16.45;76.28;96010.13;5117047;28;20055;-66
2023/06/13 03:57:22;;;;;;;16.52;4.55;;;;;;;16.77;74.55;96003.50;5116886;28;20409;-66
2023/06/13 03:59:49;;;;;;;6.55;3.90;;;;;;;17.08;72.62;95997.81;5116689;28;20047;-66
2023/06/13 04:02:19;;;;;;;11.07;3.70;;;;;;;17.33;72.25;95998.66;5116732;28;20048;-66
2023/06/13 04:04:46;;;;;;;4.60;3.22;;;;;;;17.48;71.10;95999.31;5116704;28;20047;-66
2023/06/13 04:07:13;;;;;;;4.45;2.88;;;;;;;17.71;71.28;96005.53;5116600;28;20083;-65
2023/06/13 04:09:42;;;;;;;5.70;3.30;;;;;;;18.02;71.10;96005.81;5116516;28;20048;-66
2023/06/13 04:12:11;;;;;;;4.63;2.83;;;;;;;18.35;70.05;96006.00;5116431;28;20055;-66
2023/06/13 04:14:38;;;;;;;5.47;3.00;;;;;;;18.66;69.74;96005.41;5116463;28;20097;-67
2023/06/13 04:17:09;;;;;;;9.65;3.47;;;;;;;19.04;69.62;96006.78;5116529;28;20459;-66
2023/06/13 04:19:38;;;;;;;6.40;3.65;;;;;;;19.47;69.13;96008.72;5116676;28;20127;-65
2023/06/13 04:22:06;;;;;;;6.25;2.88;;;;;;;19.91;67.85;96012.13;5116401;28;20048;-66
2023/06/13 04:24:33;;;;;;;4.50;3.20;;;;;;;20.37;65.32;96018.94;5116245;28;20043;-66
2023/06/13 04:27:03;;;;;;;9.13;3.95;;;;;;;20.69;64.20;96016.16;5116123;28;20138;-66
2023/06/13 04:29:30;;;;;;;6.82;3.53;;;;;;;20.84;63.51;96018.44;5116215;28;20043;-66
2023/06/13 04:31:58;;;;;;;5.80;3.47;;;;;;;21.12;63.20;96020.47;5116095;28;20569;-66
2023/06/13 04:34:25;;;;;;;7.45;4.03;;;;;;;21.20;60.95;96018.81;5115841;28;20064;-66
2023/06/13 04:36:55;;;;;;;10.43;3.80;;;;;;;21.17;61.67;96007.63;5116311;28;20558;-67
2023/06/13 04:39:23;;;;;;;;;;;;;;;21.13;62.14;96023.00;5116387;28;20083;-66
2023/06/13 04:41:55;;;;;;;7.50;4.05;;;;;;;20.95;61.64;96023.66;5115864;28;20373;-67
2023/06/13 04:44:25;;;;;;;8.27;4.13;;;;;;;20.75;62.37;96033.38;5115842;28;20039;-67
2023/06/13 04:46:52;;;;;;;8.30;3.67;;;;;;;20.52;64.22;96038.88;5116182;28;20126;-67
2023/06/13 04:49:19;;;;;;;10.95;4.78;;;;;;;20.11;65.48;96040.63;5115826;28;20052;-67
2023/06/13 04:51:47;;;;;;;7.80;4.30;;;;;;;19.82;66.74;96042.06;5115625;28;20043;-67
2023/06/13 04:54:16;;;;;;;6.68;4.75;;;;;;;19.63;67.63;96042.78;5115604;28;20055;-67
2023/06/13 04:56:44;;;;;;;13.55;4.50;;;;;;;19.44;68.46;96042.47;5115762;28;20400;-67
2023/06/13 04:59:11;;;;;;;6.93;4.63;;;;;;;19.43;69.57;96047.91;5115884;28;20397;-66
2023/06/13 05:01:38;;;;;;;6.22;4.43;;;;;;;19.42;69.68;96049.69;5115159;28;20564;-66
2023/06/13 05:04:05;;;;;;;4.97;4.25;;;;;;;19.42;70.07;96048.88;5115432;28;20051;-67
2023/06/13 05:06:34;;;;;;;13.27;5.30;;;;;;;19.38;70.72;96044.81;5115415;28;20044;-66
2023/06/13 05:09:02;;;;;;;5.45;4.72;;;;;;;19.38;71.21;96053.56;5115541;28;20409;-66
2023/06/13 05:11:30;;;;;;;14.52;5.35;;;;;;;19.44;71.50;96052.22;5115220;28;20466;-66
2023/06/13 05:13:57;;;;;;;8.43;4.43;;;;;;;19.42;72.16;96048.88;5115275;28;20098;-67
2023/06/13 05:16:29;;;;;;;10.38;4.70;;;;;;;19.47;72.43;96059.13;5115198;28;20469;-66
2023/06/13 05:19:00;;;;;;;7.95;4.68;;;;;;;19.48;71.54;96051.03;5115211;28;20545;-66
2023/06/13 05:21:28;;;;;;;8.32;4.00;;;;;;;19.53;71.55;96054.13;5115072;28;20085;-67
2023/06/13 05:23:56;;;;;;;7.47;4.90;;;;;;;19.62;71.68;96059.66;5114994;28;20493;-67
2023/06/13 05:26:23;;;;;;;5.10;4.60;;;;;;;19.61;71.49;96058.81;5115022;28;20047;-67
2023/06/13 05:28:51;;;;;;;6.72;5.00;;;;;;;19.69;70.81;96060.84;5115049;28;20077;-67
2023/06/13 05:31:18;;;;;;;6.10;4.38;;;;;;;19.75;70.64;96062.13;5115150;28;20062;-66
2023/06/13 05:33:45;;;;;;;5.88;4.78;;;;;;;19.86;71.21;96069.22;5114902;28;20451;-67
2023/06/13 05:36:13;;;;;;;10.85;5.20;;;;;;;19.92;71.46;96064.22;5114742;28;20043;-66
2023/06/13 05:38:41;;;;;;;8.05;4.55;;;;;;;19.92;70.61;96069.53;5114890;28;20051;-67
2023/06/13 05:41:08;;;;;;;10.60;4.57;;;;;;;20.00;70.45;96070.69;5114928;28;20571;-67
2023/06/13 05:43:35;;;;;;;11.15;4.90;;;;;;;20.10;68.74;96074.28;5114795;28;20061;-67
2023/06/13 05:46:04;;;;;;;7.22;4.75;;;;;;;20.24;67.98;96072.28;5114702;28;20078;-67
2023/06/13 05:48:31;;;;;;;13.15;4.97;;;;;;;20.37;67.61;96074.72;5114585;28;20098;-67
2023/06/13 05:50:59;;;;;;;6.10;4.63;;;;;;;20.49;67.12;96078.13;5114525;28;20051;-67
2023/06/13 05:53:26;;;;;;;6.93;4.57;;;;;;;20.56;67.12;96080.13;5114612;28;20126;-67
2023/06/13 05:55:53;;;;;;;9.23;4.70;;;;;;;20.54;67.13;96071.47;5114475;28;20054;-67
2023/06/13 05:58:20;;;;;;;6.80;4.88;;;;;;;20.65;66.90;96077.69;5114598;28;20039;-67
2023/06/13 06:00:47;;;;;;;9.50;4.60;;;;;;;20.76;65.71;96074.91;5114420;28;20397;-67
2023/06/13 06:03:16;;;;;;;5.55;4.05;;;;;;;20.63;66.42;96080.47;5114363;28;20050;-67
2023/06/13 06:05:43;;;;;;;6.57;4.35;;;;;;;20.53;67.92;96083.06;5114204;28;20134;-67
2023/06/13 06:08:10;;;;;;;5.55;4.18;;;;;;;20.57;67.44;96078.34;5114181;28;20113;-67
2023/06/13 06:10:37;;;;;;;5.35;3.90;;;;;;;20.62;67.48;96081.41;5114186;28;20047;-66
2023/06/13 06:13:04;;;;;;;4.63;4.22;;;;;;;20.65;67.83;96083.81;5113091;28;20043;-67
2023/06/13 06:15:32;;;;;;;5.40;3.80;;;;;;;20.65;68.20;96083.81;5114087;28;20079;-67
2023/06/13 06:17:59;;;;;;;4.35;3.95;;;;;;;20.69;67.99;96085.25;5114146;28;20462;-67
2023/06/13 06:20:28;;;;;;;4.72;3.97;;;;;;;20.80;68.55;96086.94;5114083;28;20051;-67
2023/06/13 06:22:55;;;;;;;10.68;4.85;;;;;;;20.86;68.67;96079.44;5113907;28;20048;-67
2023/06/13 06:25:22;;;;;;;11.77;4.75;;;;;;;20.86;68.50;96088.22;5114139;28;20043;-67
2023/06/13 06:27:50;;;;;;;7.88;4.57;;;;;;;20.89;69.01;96084.50;5114007;28;20079;-67
2023/06/13 06:30:17;;;;;;;10.13;4.82;;;;;;;20.95;67.79;96086.66;5113875;28;20043;-67
2023/06/13 06:32:45;;;;;;;7.10;4.57;;;;;;;21.00;67.67;96084.41;5113347;28;20512;-67
2023/06/13 06:35:14;;;;;;;7.20;4.70;;;;;;;20.90;68.06;96084.38;5113758;28;20564;-67
2023/06/13 06:37:43;;;;;;;5.25;4.75;;;;;;;20.78;68.23;96077.44;5113773;28;20123;-67
2023/06/13 06:40:11;;;;;;;8.00;4.88;;;;;;;20.78;68.34;96086.25;5113773;28;20225;-67
2023/06/13 06:42:38;;;;;;;5.85;4.97;;;;;;;20.75;68.13;96091.00;5113766;28;20109;-67
2023/06/13 06:45:06;;;;;;;7.03;5.25;;;;;;;20.76;67.52;96090.00;5113625;28;20043;-68
2023/06/13 06:47:33;;;;;;;6.60;4.85;;;;;;;20.71;67.88;96091.25;5113934;28;20043;-67
2023/06/13 06:50:00;;;;;;;6.93;5.40;;;;;;;20.58;68.03;96091.47;5113601;28;20079;-67
2023/06/13 06:52:28;;;;;;;11.10;4.57;;;;;;;20.56;68.64;96092.59;5113639;28;20405;-68
2023/06/13 06:54:56;;;;;;;8.73;4.78;;;;;;;20.58;68.55;96088.81;5113633;28;20047;-67
2023/06/13 06:57:23;;;;;;;8.25;4.80;;;;;;;20.56;68.07;96096.06;5113553;28;20104;-66
2023/06/13 06:59:50;;;;;;;12.77;5.40;;;;;;;20.55;68.24;96094.41;5113444;28;20047;-67
2023/06/13 07:02:18;;;;;;;10.63;5.13;;;;;;;20.67;68.26;96089.00;5113512;28;20440;-67
2023/06/13 07:04:45;;;;;;;8.13;4.85;;;;;;;20.73;67.86;96080.50;5113489;28;20047;-67
2023/06/13 07:07:13;;;;;;;8.88;4.78;;;;;;;20.73;67.92;96077.84;5113531;28;20055;-67
2023/06/13 07:09:41;;;;;;;5.18;4.63;;;;;;;20.78;67.53;96080.09;5113390;28;20515;-67
2023/06/13 07:12:10;;;;;;;6.03;4.85;;;;;;;20.89;66.40;96085.31;5113324;28;20097;-67
2023/06/13 07:14:37;;;;;;;9.80;4.63;;;;;;;20.99;65.59;96084.53;5113524;28;20047;-67
2023/06/13 07:17:04;;;;;;;12.82;4.88;;;;;;;21.13;65.73;96081.50;5113354;28;20432;-67
2023/06/13 07:19:31;;;;;;;5.43;4.78;;;;;;;21.23;64.15;96086.00;5113381;28;20123;-67
2023/06/13 07:21:58;;;;;;;10.88;4.80;;;;;;;21.25;63.50;96079.56;5113415;28;20047;-67
2023/06/13 07:24:25;;;;;;;6.50;4.72;;;;;;;21.27;62.89;96079.44;5115801;28;20050;-67
2023/06/13 07:26:52;;;;;;;10.75;4.43;;;;;;;21.37;64.01;96071.50;5117328;28;20067;-67
2023/06/13 07:29:21;;;;;;;6.03;4.50;;;;;;;21.39;65.12;96069.50;5117306;28;20481;-67
2023/06/13 07:31:48;;;;;;;9.32;4.38;;;;;;;21.43;62.18;96068.28;5117384;28;20059;-67
2023/06/13 07:34:15;;;;;;;11.00;4.50;;;;;;;21.62;64.88;96072.78;5117054;28;20075;-67
2023/06/13 07:36:43;;;;;;;8.23;4.65;;;;;;;21.69;64.69;96065.91;5117204;28;20114;-67
2023/06/13 07:39:11;;;;;;;5.50;4.50;;;;;;;21.76;62.75;96065.41;5117222;28;20047;-67
2023/06/13 07:41:38;;;;;;;6.18;4.22;;;;;;;21.96;62.75;96068.88;5117090;28;20131;-67
2023/06/13 07:44:06;;;;;;;7.10;4.13;;;;;;;22.08;61.69;96070.41;5117101;28;20055;-67
2023/06/13 07:46:34;;;;;;;9.43;4.65;;;;;;;22.20;60.48;96078.22;5117301;28;20059;-67
2023/06/13 07:49:01;;;;;;;6.95;3.78;;;;;;;22.26;60.17;96080.34;5117093;28;20073;-67
2023/06/13 07:51:29;;;;;;;6.85;4.13;;;;;;;22.43;59.83;96085.91;5117056;28;20047;-67
2023/06/13 07:53:56;;;;;;;5.75;3.70;;;;;;;22.53;58.86;96084.06;5117071;28;20058;-67
2023/06/13 07:56:23;;;;;;;7.97;4.28;;;;;;;22.64;57.91;96093.75;5116808;28;20130;-66
2023/06/13 07:58:50;;;;;;;6.30;3.63;;;;;;;22.81;56.66;96084.13;5116819;28;20484;-67
2023/06/13 08:01:18;;;;;;;6.97;4.03;;;;;;;23.04;56.42;96078.44;5116715;28;20040;-67
2023/06/13 08:03:46;;;;;;;9.32;4.38;;;;;;;23.35;55.70;96090.59;5116661;28;20051;-67
2023/06/13 08:06:14;;;;;;;5.22;3.53;;;;;;;23.56;53.55;96082.34;5116703;28;20134;-66
2023/06/13 08:08:41;;;;;;;5.18;4.05;;;;;;;23.73;54.46;96082.50;5116768;28;20497;-66
2023/06/13 08:11:08;;;;;;;7.35;4.30;;;;;;;23.58;49.90;96080.38;5116480;28;20100;-66
2023/06/13 08:13:35;;;;;;;5.13;3.25;;;;;;;23.73;50.57;96083.38;5116377;28;20047;-65
2023/06/13 08:16:02;;;;;;;5.30;3.75;;;;;;;23.82;50.65;96083.44;5116477;28;20043;-66
2023/06/13 08:18:30;;;;;;;5.40;3.70;;;;;;;23.99;50.21;96084.41;5116363;28;20048;-66
2023/06/13 08:20:58;;;;;;;8.80;4.20;;;;;;;24.19;51.44;96076.25;5116366;28;20051;-66
2023/06/13 08:23:25;;;;;;;5.32;3.88;;;;;;;24.27;49.25;96078.13;5116299;28;20078;-67
2023/06/13 08:25:52;;;;;;;4.60;3.42;;;;;;;24.45;50.85;96073.59;5116278;28;20550;-66
2023/06/13 08:28:19;;;;;;;6.90;4.18;;;;;;;24.58;50.34;96069.66;5116157;28;20066;-66
2023/06/13 08:30:49;;;;;;;11.90;4.32;;;;;;;24.68;49.13;96066.88;5116219;28;20485;-66
2023/06/13 08:33:16;;;;;;;7.30;3.38;;;;;;;24.63;48.21;96066.50;5115873;28;20050;-66
2023/06/13 08:35:43;;;;;;;6.45;3.90;;;;;;;24.66;48.98;96061.69;5115082;28;20046;-67
2023/06/13 08:38:11;;;;;;;7.30;3.95;;;;;;;25.01;48.83;96063.56;5115962;28;20112;-66
2023/06/13 08:40:39;;;;;;;8.77;3.60;;;;;;;25.16;46.78;96063.78;5115893;28;20048;-66
2023/06/13 08:43:06;;;;;;;8.95;4.03;;;;;;;25.18;46.73;96062.59;5116246;28;20130;-66
2023/06/13 08:45:33;;;;;;;6.47;3.65;;;;;;;24.81;50.04;96067.28;5116083;28;20043;-66
2023/06/13 08:48:01;;;;;;;6.95;3.80;;;;;;;24.84;49.48;96056.25;5115858;28;20122;-67
2023/06/13 08:50:28;;;;;;;8.10;3.95;;;;;;;24.91;49.93;96059.16;5115830;28;20051;-67
2023/06/13 08:52:58;;;;;;;5.13;3.70;;;;;;;25.02;48.59;96054.53;5115675;28;20052;-66
2023/06/13 08:55:29;;;;;;;7.00;3.53;;;;;;;25.02;46.77;96052.69;5115727;28;20051;-67
2023/06/13 08:57:55;;;;;;;;;;;;;;;24.79;49.08;96049.69;5116010;28;20075;-66
2023/06/13 09:00:23;;;;;;;11.88;4.00;;;;;;;24.76;50.22;96042.84;5115645;28;19934;-66
2023/06/13 09:02:52;;;;;;;10.43;3.83;;;;;;;24.95;49.24;96039.13;5115527;28;20044;-66
2023/06/13 09:05:19;;;;;;;8.50;3.38;;;;;;;25.35;51.64;96038.56;5115473;28;20047;-66
2023/06/13 09:07:47;;;;;;;9.52;3.75;;;;;;;25.29;46.35;96041.91;5115385;28;20397;-65
2023/06/13 09:10:15;;;;;;;5.72;3.70;;;;;;;25.15;47.77;96044.19;5115275;28;20520;-67
2023/06/13 09:12:49;;;;;;;5.10;3.67;;;;;;;25.31;48.75;96047.94;5115266;28;20048;-67
2023/06/13 09:15:16;;;;;;;4.38;3.70;;;;;;;25.32;50.27;96037.06;5115317;28;20043;-67
2023/06/13 09:17:44;;;;;;;9.95;3.67;;;;;;;25.36;49.87;96034.88;5115298;28;20126;-66
2023/06/13 09:20:12;;;;;;;8.13;4.05;;;;;;;25.46;49.59;96037.41;5115248;28;20047;-66
2023/06/13 09:22:39;;;;;;;4.68;3.60;;;;;;;25.54;49.17;96037.44;5115208;28;20052;-66
2023/06/13 09:25:08;;;;;;;7.53;3.35;;;;;;;25.63;49.80;96032.09;5115138;28;20392;-66
2023/06/13 09:27:35;;;;;;;6.13;3.42;;;;;;;25.71;49.01;96030.28;5115383;28;20081;-66
2023/06/13 09:30:04;;;;;;;6.13;3.70;;;;;;;25.73;48.53;96025.59;5115049;28;20039;-67
2023/06/13 09:32:31;;;;;;;5.45;3.90;;;;;;;25.69;48.10;96026.94;5114623;28;20047;-66
2023/06/13 09:34:59;;;;;;;9.13;3.80;;;;;;;25.75;47.78;96022.75;5114910;28;20546;-66
2023/06/13 09:37:26;;;;;;;4.68;3.67;;;;;;;25.95;47.49;96019.75;5114816;28;20055;-66
2023/06/13 09:39:54;;;;;;;6.72;3.55;;;;;;;26.11;47.28;96024.25;5114747;28;20044;-66
2023/06/13 09:42:22;;;;;;;6.50;3.58;;;;;;;26.25;48.52;96020.06;5114707;28;20122;-67
2023/06/13 09:44:50;;;;;;;4.35;3.63;;;;;;;25.95;47.40;96017.88;5114747;28;20105;-65
2023/06/13 09:47:27;;;;;;;8.18;3.88;;;;;;;25.84;45.99;96021.75;5114646;28;20101;-66
2023/06/13 09:49:57;;;;;;;4.18;3.72;;;;;;;25.95;48.26;96022.44;5114585;28;20518;-66
2023/06/13 09:52:25;;;;;;;5.22;3.88;;;;;;;26.20;47.17;96025.06;5114423;28;20054;-67
2023/06/13 09:54:53;;;;;;;8.57;4.05;;;;;;;26.36;47.96;96022.41;5114581;28;20143;-66
2023/06/13 09:57:21;;;;;;;5.35;3.78;;;;;;;26.48;45.10;96022.03;5114462;28;20055;-66
2023/06/13 09:59:48;;;;;;;9.35;3.72;;;;;;;26.04;46.72;96015.22;5114500;28;20108;-67
2023/06/13 10:02:16;;;;;;;7.85;4.40;;;;;;;26.11;48.07;96022.41;5114407;28;20078;-67
2023/06/13 10:04:45;;;;;;;12.45;4.13;;;;;;;25.93;44.75;96019.06;5114331;28;20093;-66
2023/06/13 10:07:12;;;;;;;4.90;3.90;;;;;;;25.61;46.66;96024.25;5114579;28;20077;-66
2023/06/13 10:09:40;;;;;;;4.80;3.67;;;;;;;25.38;46.15;96019.53;5114234;28;20105;-66
2023/06/13 10:12:12;;;;;;;6.28;4.05;;;;;;;25.23;47.79;96014.78;5114205;28;20040;-65
2023/06/13 10:14:43;;;;;;;6.03;4.25;;;;;;;25.24;48.05;96010.28;5114049;28;20047;-66
2023/06/13 10:17:12;;;;;;;5.82;3.53;;;;;;;25.34;48.53;96007.44;5114207;28;20126;-67
2023/06/13 10:19:41;;;;;;;8.63;4.60;;;;;;;25.43;49.27;96009.13;5114066;28;20105;-66
2023/06/13 10:22:11;;;;;;;7.93;4.00;;;;;;;25.62;47.21;96007.19;5113986;28;20420;-67
2023/06/13 10:24:41;;;;;;;9.75;3.83;;;;;;;26.08;49.28;96009.34;5114043;28;20047;-68
2023/06/13 10:27:12;;;;;;;7.65;4.63;;;;;;;26.15;42.86;96009.50;5114130;28;20171;-67
2023/06/13 10:30:08;;;;;;;9.98;4.22;;;;;;;26.10;45.24;95999.28;5113907;28;20047;-66
2023/06/13 10:33:13;;;;;;;7.32;4.25;;;;;;;26.46;46.04;95999.94;5110034;28;20040;-66
2023/06/13 10:36:14;;;;;;;5.20;4.00;;;;;;;26.57;45.08;95999.56;5110502;28;20164;-66
2023/06/13 10:39:16;;;;;;;8.85;4.03;;;;;;;26.54;42.94;96001.72;5113867;28;20712;-66
2023/06/13 10:42:03;;;;;;;4.68;4.03;;;;;;;26.64;42.49;95994.34;5113882;28;20049;-66
2023/06/13 10:44:38;;;;;;;5.05;3.80;;;;;;;26.61;41.95;95994.69;5113700;28;20070;-65
2023/06/13 10:47:07;;;;;;;9.48;3.75;;;;;;;26.51;44.22;95997.56;5113583;28;20100;-66
2023/06/13 10:49:38;;;;;;;4.70;4.05;;;;;;;26.61;45.69;95992.84;5113582;28;20043;-67
2023/06/13 10:52:11;;;;;;;11.15;4.25;;;;;;;26.49;41.90;95987.00;5113496;28;20127;-67
2023/06/13 10:54:40;;;;;;;6.18;4.35;;;;;;;26.65;43.77;95987.97;5113563;28;20074;-65
2023/06/13 10:57:08;;;;;;;7.07;3.95;;;;;;;26.69;46.55;95986.63;5113579;28;20568;-67
2023/06/13 10:59:39;;;;;;;6.30;3.47;;;;;;;26.93;45.17;95987.50;5113025;28;20497;-66
2023/06/13 11:02:14;;;;;;;5.47;3.67;;;;;;;27.14;43.39;95974.53;5113506;28;20127;-66
2023/06/13 11:04:49;;;;;;;4.38;3.92;;;;;;;27.22;43.44;95972.63;5113351;28;20131;-66
2023/06/13 11:07:33;;;;;;;5.63;3.22;;;;;;;27.08;42.19;95970.69;5113445;28;20044;-68
2023/06/13 11:10:13;;;;;;;6.63;3.38;;;;;;;26.87;42.33;95970.28;5113441;28;20051;-66
2023/06/13 11:12:42;;;;;;;6.18;4.10;;;;;;;26.72;43.07;95974.69;5113368;28;20079;-65
2023/06/13 11:15:21;;;;;;;5.75;3.70;;;;;;;26.40;43.45;95963.94;5113624;28;20127;-67
2023/06/13 11:18:25;;;;;;;4.43;4.03;;;;;;;26.23;46.58;95968.47;5113335;28;20094;-66
2023/06/13 11:20:53;;;;;;;6.60;4.00;;;;;;;25.78;43.88;95960.84;5113412;28;20126;-67
2023/06/13 11:23:23;;;;;;;8.20;3.70;;;;;;;25.52;43.43;95953.78;5113369;28;20130;-68
2023/06/13 11:25:52;;;;;;;5.85;3.33;;;;;;;25.41;46.73;95952.28;5113358;28;20100;-67
2023/06/13 11:28:20;;;;;;;3.95;3.40;;;;;;;25.24;46.86;95948.75;5113371;28;20454;-65
2023/06/13 11:30:48;;;;;;;11.05;3.92;;;;;;;25.40;47.90;95952.44;5113330;28;20047;-67
2023/06/13 11:33:17;;;;;;;4.03;3.35;;;;;;;25.83;45.45;95947.75;5112946;28;20052;-66
2023/06/13 11:35:49;;;;;;;6.60;3.75;;;;;;;26.29;45.88;95942.81;5113218;28;20451;-67
2023/06/13 11:38:22;;;;;;;8.05;3.85;;;;;;;26.72;44.65;95935.31;5113262;28;20047;-68
2023/06/13 11:40:56;;;;;;;11.02;3.88;;;;;;;26.87;44.12;95938.09;5113079;28;20079;-66